createdAt,value
2019-03-02T00:00:40.089Z,99.60
2019-03-02T00:03:09.512Z,99.60
2019-03-02T00:05:38.971Z,99.70
2019-03-02T00:08:08.564Z,99.60
2019-03-02T00:10:40.753Z,99.60
2019-03-02T00:13:10.095Z,99.60
2019-03-02T00:15:42.252Z,99.70
2019-03-02T00:18:11.432Z,99.70
2019-03-02T00:20:43.823Z,99.90
2019-03-02T00:23:15.831Z,99.80
2019-03-02T00:25:51.673Z,99.80
2019-03-02T00:28:21.287Z,99.90
2019-03-02T00:30:50.723Z,99.90
2019-03-02T00:33:21.183Z,99.90
2019-03-02T00:35:50.909Z,99.90
2019-03-02T00:38:20.484Z,99.90
2019-03-02T00:40:49.900Z,99.90
2019-03-02T00:43:20.113Z,99.90
2019-03-02T00:45:51.833Z,99.90
2019-03-02T00:48:21.230Z,99.90
2019-03-02T00:50:52.124Z,99.90
2019-03-02T00:53:21.778Z,99.90
2019-03-02T00:55:51.460Z,99.90
2019-03-02T00:58:20.667Z,99.90
2019-03-02T01:00:53.293Z,99.90
2019-03-02T01:03:22.023Z,99.90
2019-03-02T01:06:03.374Z,99.90
2019-03-02T01:08:35.032Z,99.90
2019-03-02T01:11:05.571Z,99.90
2019-03-02T01:13:35.031Z,99.90
2019-03-02T01:16:04.742Z,99.90
2019-03-02T01:18:34.003Z,99.90
2019-03-02T01:21:04.969Z,99.90
2019-03-02T01:23:35.269Z,99.90
2019-03-02T01:26:04.631Z,99.90
2019-03-02T01:28:34.809Z,99.90
2019-03-02T01:31:08.400Z,99.90
2019-03-02T01:33:38.015Z,99.90
2019-03-02T01:36:18.348Z,99.90
2019-03-02T01:39:08.552Z,99.90
2019-03-02T01:41:44.292Z,99.90
2019-03-02T01:44:16.294Z,99.90
2019-03-02T01:46:44.713Z,99.90
2019-03-02T01:49:13.892Z,99.90
2019-03-02T01:51:43.021Z,99.90
2019-03-02T01:54:12.427Z,99.90
2019-03-02T01:56:42.718Z,99.90
2019-03-02T01:59:11.793Z,99.90
2019-03-02T02:01:41.282Z,99.90
2019-03-02T02:04:10.726Z,99.90
2019-03-02T02:06:42.837Z,99.90
2019-03-02T02:09:11.108Z,99.90
2019-03-02T02:11:40.531Z,99.90
2019-03-02T02:14:10.035Z,99.90
2019-03-02T02:16:41.814Z,99.90
2019-03-02T02:19:10.339Z,99.90
2019-03-02T02:21:39.751Z,99.90
2019-03-02T02:24:09.253Z,99.90
2019-03-02T02:26:38.331Z,99.90
2019-03-02T02:29:08.278Z,99.90
2019-03-02T02:31:44.535Z,99.90
2019-03-02T02:34:09.963Z,99.90
2019-03-02T02:36:39.069Z,99.90
2019-03-02T02:39:10.314Z,99.90
2019-03-02T02:41:39.348Z,99.90
2019-03-02T02:44:08.983Z,99.90
2019-03-02T02:46:39.141Z,99.90
2019-03-02T02:49:10.378Z,99.90
2019-03-02T02:51:38.776Z,99.90
2019-03-02T02:54:07.860Z,99.90
2019-03-02T02:56:37.565Z,99.90
2019-03-02T02:59:06.774Z,99.90
2019-03-02T03:01:35.835Z,99.90
2019-03-02T03:04:04.920Z,99.90
2019-03-02T03:06:34.428Z,99.90
2019-03-02T03:09:09.718Z,99.90
2019-03-02T03:11:43.583Z,99.90
2019-03-02T03:14:07.515Z,99.90
2019-03-02T03:16:36.952Z,99.90
2019-03-02T03:19:06.279Z,99.90
2019-03-02T03:21:36.330Z,99.90
2019-03-02T03:24:05.477Z,99.90
2019-03-02T03:26:35.263Z,99.90
2019-03-02T03:29:09.665Z,99.90
2019-03-02T03:31:36.170Z,99.90
2019-03-02T03:34:05.492Z,99.90
2019-03-02T03:36:35.514Z,99.90
2019-03-02T03:39:07.247Z,99.90
2019-03-02T03:41:42.812Z,99.90
2019-03-02T03:44:08.914Z,99.90
2019-03-02T03:46:38.159Z,99.90
2019-03-02T03:49:07.607Z,99.90
2019-03-02T03:51:36.783Z,99.90
2019-03-02T03:54:06.909Z,99.90
2019-03-02T03:56:37.598Z,99.90
2019-03-02T03:59:07.757Z,99.90
2019-03-02T04:01:37.288Z,99.90
2019-03-02T04:04:06.895Z,99.90
2019-03-02T04:06:36.190Z,99.90
2019-03-02T04:09:08.287Z,99.90
2019-03-02T04:11:37.883Z,99.90
2019-03-02T04:14:07.740Z,99.90
2019-03-02T04:16:37.021Z,99.90
2019-03-02T04:19:06.777Z,99.90
2019-03-02T04:21:39.061Z,99.90
2019-03-02T04:24:08.197Z,99.90
2019-03-02T04:26:38.587Z,99.90
2019-03-02T04:29:09.902Z,99.90
2019-03-02T04:31:38.698Z,99.90
2019-03-02T04:34:07.704Z,99.90
2019-03-02T04:36:36.766Z,99.90
2019-03-02T04:39:11.990Z,99.90
2019-03-02T04:41:39.618Z,99.90
2019-03-02T04:44:09.598Z,99.90
2019-03-02T04:46:39.210Z,99.90
2019-03-02T04:49:10.921Z,99.90
2019-03-02T04:51:40.194Z,99.90
2019-03-02T04:54:10.092Z,99.90
2019-03-02T04:56:39.174Z,99.90
2019-03-02T04:59:08.275Z,99.90
2019-03-02T05:01:38.999Z,99.90
2019-03-02T05:04:08.170Z,99.90
2019-03-02T05:06:37.676Z,99.90
2019-03-02T05:09:08.079Z,99.90
2019-03-02T05:11:39.314Z,99.90
2019-03-02T05:14:08.959Z,99.90
2019-03-02T05:16:39.082Z,99.90
2019-03-02T05:19:08.653Z,99.90
2019-03-02T05:21:39.896Z,99.90
2019-03-02T05:24:09.291Z,99.90
2019-03-02T05:26:39.306Z,99.90
2019-03-02T05:29:08.801Z,99.90
2019-03-02T05:31:40.880Z,99.90
2019-03-02T05:34:09.000Z,99.90
2019-03-02T05:36:38.497Z,99.90
2019-03-02T05:39:07.990Z,99.90
2019-03-02T05:41:39.170Z,99.90
2019-03-02T05:44:08.472Z,99.90
2019-03-02T05:46:37.563Z,99.90
2019-03-02T05:49:06.689Z,99.90
2019-03-02T05:51:39.005Z,99.90
2019-03-02T05:54:07.610Z,99.90
2019-03-02T05:56:36.708Z,99.90
2019-03-02T05:59:05.832Z,99.90
2019-03-02T06:01:36.695Z,99.90
2019-03-02T06:04:06.270Z,99.90
2019-03-02T06:06:35.881Z,99.90
2019-03-02T06:09:13.932Z,99.90
2019-03-02T06:11:40.933Z,99.90
2019-03-02T06:14:10.611Z,99.90
2019-03-02T06:16:40.185Z,99.90
2019-03-02T06:19:10.063Z,99.90
2019-03-02T06:21:39.125Z,99.90
2019-03-02T06:24:08.495Z,99.90
2019-03-02T06:26:37.601Z,99.90
2019-03-02T06:29:06.737Z,99.90
2019-03-02T06:31:35.830Z,99.90
2019-03-02T06:34:05.207Z,99.90
2019-03-02T06:36:34.276Z,99.90
2019-03-02T06:39:07.923Z,99.90
2019-03-02T06:41:35.773Z,99.90
2019-03-02T06:44:04.853Z,99.90
2019-03-02T06:46:33.991Z,99.90
2019-03-02T06:49:03.141Z,99.90
2019-03-02T06:51:32.494Z,99.90
2019-03-02T06:54:01.689Z,99.90
2019-03-02T06:56:32.588Z,99.90
2019-03-02T06:59:04.211Z,99.90
2019-03-02T07:01:33.760Z,99.90
2019-03-02T07:04:02.692Z,99.90
2019-03-02T07:06:34.845Z,99.90
2019-03-02T07:09:09.574Z,99.90
2019-03-02T07:11:39.776Z,99.90
2019-03-02T07:14:09.422Z,99.90
2019-03-02T07:16:38.541Z,99.90
2019-03-02T07:19:38.781Z,99.90
2019-03-02T07:22:07.882Z,99.90
2019-03-02T07:24:38.973Z,99.90
2019-03-02T07:27:08.731Z,99.90
2019-03-02T07:29:39.670Z,99.90
2019-03-02T07:32:08.805Z,99.90
2019-03-02T07:34:40.794Z,99.90
2019-03-02T07:37:18.304Z,99.90
2019-03-02T07:39:53.820Z,99.90
2019-03-02T07:42:24.662Z,99.90
2019-03-02T07:44:54.995Z,99.90
2019-03-02T07:47:25.369Z,99.90
2019-03-02T07:49:54.549Z,99.90
2019-03-02T07:52:24.004Z,99.90
2019-03-02T07:54:58.345Z,99.90
2019-03-02T07:57:24.204Z,99.90
2019-03-02T07:59:53.378Z,99.90
2019-03-02T08:02:25.793Z,99.90
2019-03-02T08:04:55.520Z,99.90
2019-03-02T08:07:24.549Z,99.90
2019-03-02T08:09:53.656Z,99.90
2019-03-02T08:12:24.932Z,99.90
2019-03-02T08:14:54.530Z,99.90
2019-03-02T08:17:23.657Z,99.90
2019-03-02T08:19:52.879Z,99.90
2019-03-02T08:22:22.573Z,99.90
2019-03-02T08:24:51.634Z,99.90
2019-03-02T08:27:20.745Z,99.90
2019-03-02T08:29:50.273Z,99.90
2019-03-02T08:32:21.158Z,99.90
2019-03-02T08:34:51.796Z,99.90
2019-03-02T08:37:22.938Z,99.90
2019-03-02T08:39:52.453Z,99.90
2019-03-02T08:42:21.754Z,99.90
2019-03-02T08:44:54.016Z,99.90
2019-03-02T08:47:32.817Z,99.90
2019-03-02T08:50:02.115Z,99.90
2019-03-02T08:52:31.515Z,99.90
2019-03-02T08:55:00.619Z,99.90
2019-03-02T08:57:30.021Z,99.90
2019-03-02T08:59:59.397Z,99.90
2019-03-02T09:02:28.841Z,99.90
2019-03-02T09:04:58.217Z,99.90
2019-03-02T09:07:27.361Z,99.90
2019-03-02T09:09:56.790Z,99.90
2019-03-02T09:12:25.868Z,99.90
2019-03-02T09:14:55.193Z,99.90
2019-03-02T09:17:24.509Z,99.90
2019-03-02T09:20:13.411Z,99.90
2019-03-02T09:22:43.269Z,99.90
2019-03-02T09:25:14.555Z,99.90
2019-03-02T09:27:43.689Z,99.90
2019-03-02T09:30:15.046Z,99.90
2019-03-02T09:32:47.031Z,99.90
2019-03-02T09:35:16.390Z,99.90
2019-03-02T09:37:46.982Z,99.90
2019-03-02T09:40:16.310Z,99.90
2019-03-02T09:42:46.172Z,99.90
2019-03-02T09:45:16.266Z,99.90
2019-03-02T09:47:47.621Z,99.90
2019-03-02T09:50:16.717Z,99.90
2019-03-02T09:52:46.440Z,99.90
2019-03-02T09:55:18.440Z,99.90
2019-03-02T09:57:48.358Z,99.90
2019-03-02T10:00:23.902Z,99.90
2019-03-02T10:02:53.556Z,99.90
2019-03-02T10:05:22.766Z,99.90
2019-03-02T10:07:52.811Z,99.90
2019-03-02T10:10:25.154Z,99.90
2019-03-02T10:12:53.600Z,99.90
2019-03-02T10:15:23.098Z,99.90
2019-03-02T10:17:52.105Z,99.90
2019-03-02T10:20:21.260Z,99.90
2019-03-02T10:22:50.618Z,99.90
2019-03-02T10:25:20.348Z,99.90
2019-03-02T10:27:49.803Z,99.90
2019-03-02T10:30:22.125Z,99.90
2019-03-02T10:32:51.884Z,99.90
2019-03-02T10:35:21.367Z,99.70
2019-03-02T10:37:50.440Z,99.40
2019-03-02T10:40:19.634Z,99.20
2019-03-02T10:42:49.237Z,99.00
2019-03-02T10:45:18.365Z,98.80
2019-03-02T10:47:47.544Z,98.60
2019-03-02T10:50:19.623Z,98.50
2019-03-02T10:52:49.944Z,98.30
2019-03-02T10:55:20.043Z,98.10
2019-03-02T10:57:49.260Z,97.80
2019-03-02T11:00:25.661Z,97.40
2019-03-02T11:02:56.038Z,97.20
2019-03-02T11:05:52.929Z,96.50
2019-03-02T11:08:39.598Z,96.30
2019-03-02T11:11:25.804Z,96.10
2019-03-02T11:14:18.290Z,95.40
2019-03-02T11:17:06.719Z,95.20
2019-03-02T11:19:53.568Z,94.70
2019-03-02T11:22:48.046Z,94.20
2019-03-02T11:25:42.285Z,94.20
2019-03-02T11:28:20.820Z,93.80
2019-03-02T11:31:18.241Z,93.50
2019-03-02T11:34:15.418Z,93.30
2019-03-02T11:37:05.294Z,93.10
2019-03-02T11:40:08.486Z,93.00
2019-03-02T11:43:04.926Z,93.10
2019-03-02T11:45:56.484Z,92.50
2019-03-02T11:48:41.224Z,92.50
2019-03-02T11:51:33.331Z,92.10
2019-03-02T11:54:28.806Z,91.60
2019-03-02T11:57:17.761Z,91.20
2019-03-02T12:00:07.000Z,90.70
2019-03-02T12:02:54.043Z,90.60
2019-03-02T12:05:40.873Z,90.60
2019-03-02T12:08:35.730Z,90.40
2019-03-02T12:11:27.715Z,90.20
2019-03-02T12:14:21.319Z,89.70
2019-03-02T12:17:00.186Z,89.60
2019-03-02T12:19:51.122Z,89.50
2019-03-02T12:22:57.727Z,89.70
2019-03-02T12:25:45.385Z,89.60
2019-03-02T12:28:40.583Z,90.00
2019-03-02T12:31:28.092Z,90.10
2019-03-02T12:34:21.313Z,90.00
2019-03-02T12:37:09.765Z,90.10
2019-03-02T12:39:48.690Z,90.10
2019-03-02T12:42:52.634Z,90.00
2019-03-02T12:45:35.087Z,90.10
2019-03-02T12:48:35.465Z,89.00
2019-03-02T12:51:19.643Z,86.70
2019-03-02T12:53:55.549Z,84.60
2019-03-02T12:56:42.648Z,84.20
2019-03-02T12:59:28.225Z,83.90
2019-03-02T13:02:17.608Z,84.00
2019-03-02T13:05:12.641Z,83.50
2019-03-02T13:07:51.725Z,84.50
2019-03-02T13:10:35.271Z,83.70
2019-03-02T13:13:26.643Z,84.20
2019-03-02T13:16:19.848Z,83.90
2019-03-02T13:19:08.719Z,83.60
2019-03-02T13:22:03.771Z,83.20
2019-03-02T13:24:57.766Z,82.90
2019-03-02T13:27:42.575Z,82.40
2019-03-02T13:30:19.955Z,81.90
2019-03-02T13:33:01.114Z,80.90
2019-03-02T13:35:42.113Z,81.00
2019-03-02T13:38:49.845Z,81.90
2019-03-02T13:41:30.332Z,81.40
2019-03-02T13:44:34.711Z,81.60
2019-03-02T13:47:44.978Z,81.90
2019-03-02T13:50:34.850Z,82.30
2019-03-02T13:53:15.868Z,83.00
2019-03-02T13:55:51.407Z,83.40
2019-03-02T13:58:38.421Z,83.80
2019-03-02T14:01:25.234Z,84.00
2019-03-02T14:04:11.020Z,84.40
2019-03-02T14:07:05.955Z,84.60
2019-03-02T14:09:58.585Z,84.50
2019-03-02T14:13:02.196Z,84.70
2019-03-02T14:16:02.830Z,84.30
2019-03-02T14:18:52.473Z,84.30
2019-03-02T14:21:42.727Z,85.40
2019-03-02T14:24:37.722Z,85.70
2019-03-02T14:27:28.984Z,85.80
2019-03-02T14:30:29.149Z,86.60
2019-03-02T14:33:16.523Z,87.10
2019-03-02T14:36:04.893Z,88.20
2019-03-02T14:38:43.692Z,89.30
2019-03-02T14:41:30.045Z,90.10
2019-03-02T14:44:21.409Z,90.20
2019-03-02T14:46:59.993Z,90.40
2019-03-02T14:49:46.744Z,90.60
2019-03-02T14:52:36.812Z,90.70
2019-03-02T14:55:34.939Z,90.90
2019-03-02T14:58:13.879Z,91.00
2019-03-02T15:01:02.659Z,91.40
2019-03-02T15:03:58.116Z,91.60
2019-03-02T15:06:55.266Z,91.90
2019-03-02T15:09:38.077Z,92.40
2019-03-02T15:12:29.969Z,93.20
2019-03-02T15:15:22.580Z,93.60
2019-03-02T15:18:05.358Z,94.90
2019-03-02T15:20:53.510Z,96.20
2019-03-02T15:23:38.852Z,96.80
2019-03-02T15:26:15.444Z,97.30
2019-03-02T15:29:01.362Z,97.50
2019-03-02T15:31:39.227Z,97.60
2019-03-02T15:34:16.964Z,98.00
2019-03-02T15:37:24.303Z,98.20
2019-03-02T15:40:16.523Z,98.20
2019-03-02T15:43:16.746Z,98.20
2019-03-02T15:45:58.682Z,98.10
2019-03-02T15:48:41.886Z,98.00
2019-03-02T15:51:39.231Z,98.00
2019-03-02T15:54:32.089Z,98.00
2019-03-02T15:57:19.291Z,98.20
2019-03-02T15:59:59.142Z,98.40
2019-03-02T16:02:42.186Z,98.50
2019-03-02T16:05:21.135Z,98.40
2019-03-02T16:08:02.878Z,98.50
2019-03-02T16:10:51.467Z,98.60
2019-03-02T16:13:38.618Z,98.60
2019-03-02T16:16:34.983Z,98.50
2019-03-02T16:19:13.511Z,98.60
2019-03-02T16:22:11.236Z,98.30
2019-03-02T16:25:15.367Z,98.20
2019-03-02T16:27:58.107Z,98.20
2019-03-02T16:30:39.092Z,98.20
2019-03-02T16:33:33.762Z,98.20
2019-03-02T16:36:22.071Z,98.10
2019-03-02T16:39:19.457Z,98.30
2019-03-02T16:42:07.178Z,98.50
2019-03-02T16:44:59.624Z,99.00
2019-03-02T16:47:53.698Z,99.20
2019-03-02T16:50:41.060Z,99.80
2019-03-02T16:53:29.595Z,99.90
2019-03-02T16:56:21.356Z,99.90
2019-03-02T16:59:07.022Z,99.90
2019-03-02T17:01:46.316Z,99.90
2019-03-02T17:04:43.796Z,99.90
2019-03-02T17:07:32.326Z,99.90
2019-03-02T17:10:08.729Z,99.90
2019-03-02T17:12:58.879Z,99.90
2019-03-02T17:15:40.056Z,99.90
2019-03-02T17:18:29.582Z,99.90
2019-03-02T17:21:16.574Z,99.90
2019-03-02T17:24:01.128Z,99.90
2019-03-02T17:26:55.832Z,99.90
2019-03-02T17:29:39.496Z,99.90
2019-03-02T17:32:28.066Z,99.90
2019-03-02T17:35:20.766Z,99.90
2019-03-02T17:38:01.608Z,99.90
2019-03-02T17:40:54.611Z,99.90
2019-03-02T17:43:50.143Z,99.90
2019-03-02T17:46:51.779Z,99.90
2019-03-02T17:49:40.952Z,99.90
2019-03-02T17:52:29.080Z,99.90
2019-03-02T17:55:24.907Z,99.90
2019-03-02T17:58:13.475Z,99.90
2019-03-02T18:00:56.985Z,99.90
2019-03-02T18:03:50.625Z,99.90
2019-03-02T18:06:38.447Z,99.90
2019-03-02T18:09:31.747Z,99.90
2019-03-02T18:12:08.833Z,99.90
2019-03-02T18:14:44.333Z,99.90
2019-03-02T18:17:28.580Z,99.90
2019-03-02T18:19:57.972Z,99.90
2019-03-02T18:22:27.254Z,99.90
2019-03-02T18:24:56.630Z,99.90
2019-03-02T18:27:25.755Z,99.90
2019-03-02T18:29:55.109Z,99.90
2019-03-02T18:32:24.381Z,99.90
2019-03-02T18:34:56.826Z,99.90
2019-03-02T18:37:26.374Z,99.90
2019-03-02T18:39:58.162Z,99.90
2019-03-02T18:42:27.180Z,99.90
2019-03-02T18:45:00.556Z,99.90
2019-03-02T18:47:29.992Z,99.90
2019-03-02T18:50:24.985Z,99.90
2019-03-02T18:53:06.856Z,99.90
2019-03-02T18:55:36.081Z,99.90
2019-03-02T18:58:06.926Z,99.90
2019-03-02T19:00:42.289Z,99.90
2019-03-02T19:03:11.748Z,99.90
2019-03-02T19:05:40.993Z,99.90
2019-03-02T19:08:11.654Z,99.90
2019-03-02T19:10:43.287Z,99.90
2019-03-02T19:13:11.835Z,99.90
2019-03-02T19:15:41.202Z,99.90
2019-03-02T19:18:10.618Z,99.90
2019-03-02T19:20:42.204Z,99.90
2019-03-02T19:23:11.380Z,99.90
2019-03-02T19:25:40.491Z,99.90
2019-03-02T19:28:11.843Z,99.90
2019-03-02T19:30:41.020Z,99.90
2019-03-02T19:33:10.444Z,99.90
2019-03-02T19:35:39.443Z,99.90
2019-03-02T19:38:08.732Z,99.90
2019-03-02T19:40:38.304Z,99.90
2019-03-02T19:43:08.727Z,99.90
2019-03-02T19:45:37.820Z,99.90
2019-03-02T19:48:06.906Z,99.90
2019-03-02T19:50:36.034Z,99.90
2019-03-02T19:53:05.206Z,99.90
2019-03-02T19:55:34.337Z,99.90
2019-03-02T19:58:03.779Z,99.90
2019-03-02T20:00:32.936Z,99.90
2019-03-02T20:03:02.517Z,99.90
2019-03-02T20:05:32.730Z,99.90
2019-03-02T20:08:01.839Z,99.90
2019-03-02T20:10:30.966Z,99.90
2019-03-02T20:13:00.072Z,99.90
2019-03-02T20:15:29.281Z,99.90
2019-03-02T20:17:58.415Z,99.90
2019-03-02T20:20:27.499Z,99.90
2019-03-02T20:22:57.277Z,99.90
2019-03-02T20:25:26.653Z,99.90
2019-03-02T20:27:56.161Z,99.90
2019-03-02T20:30:26.290Z,99.90
2019-03-02T20:32:55.642Z,99.90
2019-03-02T20:35:24.773Z,99.90
2019-03-02T20:37:54.199Z,99.90
2019-03-02T20:40:23.301Z,99.90
2019-03-02T20:42:52.766Z,99.90
2019-03-02T20:45:22.751Z,99.90
2019-03-02T20:47:51.936Z,99.90
2019-03-02T20:50:21.155Z,99.90
2019-03-02T20:52:50.589Z,99.90
2019-03-02T20:55:19.764Z,99.90
2019-03-02T20:57:50.214Z,99.90
2019-03-02T21:00:22.667Z,99.90
2019-03-02T21:02:52.144Z,99.90
2019-03-02T21:05:21.740Z,99.90
2019-03-02T21:07:51.166Z,99.90
2019-03-02T21:10:21.410Z,99.90
2019-03-02T21:12:50.624Z,99.90
2019-03-02T21:15:23.964Z,99.90
2019-03-02T21:17:53.229Z,99.90
2019-03-02T21:20:22.421Z,99.90
2019-03-02T21:22:51.790Z,99.90
2019-03-02T21:25:21.541Z,99.90
2019-03-02T21:27:50.612Z,99.90
2019-03-02T21:30:19.833Z,99.90
2019-03-02T21:32:49.182Z,99.90
2019-03-02T21:35:18.302Z,99.90
2019-03-02T21:37:47.424Z,99.90
2019-03-02T21:40:18.749Z,99.90
2019-03-02T21:42:48.853Z,99.90
2019-03-02T21:45:19.068Z,99.90
2019-03-02T21:47:48.781Z,99.90
2019-03-02T21:50:20.698Z,99.90
2019-03-02T21:52:49.774Z,99.90
2019-03-02T21:55:18.985Z,99.90
2019-03-02T21:57:48.343Z,99.90
2019-03-02T22:00:20.551Z,99.90
2019-03-02T22:02:49.664Z,99.90
2019-03-02T22:05:19.005Z,99.90
2019-03-02T22:07:48.099Z,99.90
2019-03-02T22:10:20.249Z,99.90
2019-03-02T22:12:49.715Z,99.90
2019-03-02T22:15:18.890Z,99.90
2019-03-02T22:17:49.663Z,99.90
2019-03-02T22:20:18.752Z,99.90
2019-03-02T22:22:47.896Z,99.90
2019-03-02T22:25:17.608Z,99.90
2019-03-02T22:27:46.784Z,99.90
2019-03-02T22:30:18.445Z,99.90
2019-03-02T22:32:47.658Z,99.90
2019-03-02T22:35:16.826Z,99.90
2019-03-02T22:37:45.984Z,99.90
2019-03-02T22:40:16.763Z,99.90
2019-03-02T22:42:45.937Z,99.90
2019-03-02T22:45:16.004Z,99.90
2019-03-02T22:47:45.202Z,99.90
2019-03-02T22:50:16.648Z,99.90
2019-03-02T22:52:46.006Z,99.90
2019-03-02T22:55:15.795Z,99.90
2019-03-02T22:57:45.273Z,99.90
2019-03-02T23:01:04.842Z,99.90
2019-03-02T23:03:32.655Z,99.90
2019-03-02T23:06:01.743Z,99.90
2019-03-02T23:08:31.154Z,99.90
2019-03-02T23:11:00.508Z,99.90
2019-03-02T23:13:29.756Z,99.90
2019-03-02T23:15:59.217Z,99.90
2019-03-02T23:18:28.295Z,99.90
2019-03-02T23:20:57.380Z,99.90
2019-03-02T23:23:26.522Z,99.90
2019-03-02T23:25:55.993Z,99.90
2019-03-02T23:28:25.427Z,99.90
2019-03-02T23:30:54.450Z,99.90
2019-03-02T23:33:23.541Z,99.90
2019-03-02T23:35:52.985Z,99.90
2019-03-02T23:38:22.431Z,99.70
2019-03-02T23:40:51.557Z,99.70
2019-03-02T23:43:20.933Z,99.70
2019-03-02T23:45:49.953Z,99.60
2019-03-02T23:48:19.463Z,99.60
2019-03-02T23:50:48.565Z,99.60
2019-03-02T23:53:17.723Z,99.70
2019-03-02T23:55:47.209Z,99.80
2019-03-02T23:58:17.734Z,99.90
